createdAt,value
2022-12-04T00:00:39.379Z,1.47
2022-12-04T00:04:02.210Z,1.50
2022-12-04T00:07:24.063Z,1.51
2022-12-04T00:10:45.784Z,1.48
2022-12-04T00:14:07.905Z,1.45
2022-12-04T00:17:31.016Z,1.47
2022-12-04T00:20:52.896Z,1.47
2022-12-04T00:24:14.403Z,1.48
2022-12-04T00:27:36.175Z,1.45
2022-12-04T00:30:57.720Z,1.46
2022-12-04T00:34:22.239Z,1.44
2022-12-04T00:37:44.105Z,1.44
2022-12-04T00:41:06.269Z,1.41
2022-12-04T00:44:27.854Z,1.42
2022-12-04T00:47:49.637Z,1.44
2022-12-04T00:51:15.112Z,1.44
2022-12-04T00:54:36.783Z,1.44
2022-12-04T00:58:00.158Z,1.44
2022-12-04T01:01:22.995Z,1.43
2022-12-04T01:04:45.056Z,1.42
2022-12-04T01:08:08.535Z,1.41
2022-12-04T01:11:31.611Z,1.42
2022-12-04T01:14:53.191Z,1.43
2022-12-04T01:18:15.859Z,1.40
2022-12-04T01:21:38.712Z,1.40
2022-12-04T01:25:02.147Z,1.40
2022-12-04T01:28:24.310Z,1.41
2022-12-04T01:31:46.274Z,1.41
2022-12-04T01:35:08.862Z,1.39
2022-12-04T01:38:31.523Z,1.38
2022-12-04T01:41:54.679Z,1.39
2022-12-04T01:45:43.951Z,1.38
2022-12-04T01:49:07.358Z,1.39
2022-12-04T01:52:29.754Z,1.38
2022-12-04T01:55:51.909Z,1.38
2022-12-04T01:59:18.542Z,1.40
2022-12-04T02:02:45.839Z,1.41
2022-12-04T02:06:08.084Z,1.43
2022-12-04T02:09:30.988Z,1.42
2022-12-04T02:13:00.310Z,1.43
2022-12-04T02:16:29.983Z,1.44
2022-12-04T02:20:09.660Z,1.43
2022-12-04T02:24:11.238Z,1.43
2022-12-04T02:27:57.601Z,1.44
2022-12-04T02:31:22.967Z,1.44
2022-12-04T02:34:52.275Z,1.44
2022-12-04T02:38:23.481Z,1.43
2022-12-04T02:41:49.554Z,1.43
2022-12-04T02:45:16.335Z,1.47
2022-12-04T02:48:42.423Z,1.47
2022-12-04T02:52:08.099Z,1.47
2022-12-04T02:55:33.625Z,1.48
2022-12-04T02:58:58.695Z,1.49
2022-12-04T03:02:29.787Z,1.47
2022-12-04T03:05:56.893Z,1.47
2022-12-04T03:09:22.997Z,1.48
2022-12-04T03:12:48.703Z,1.48
2022-12-04T03:16:15.478Z,1.50
2022-12-04T03:19:43.882Z,1.43
2022-12-04T03:23:10.341Z,1.43
2022-12-04T03:26:37.002Z,1.44
2022-12-04T03:30:04.531Z,1.44
2022-12-04T03:33:33.208Z,1.45
2022-12-04T03:36:59.983Z,1.47
2022-12-04T03:40:25.424Z,1.49
2022-12-04T03:43:51.992Z,1.50
2022-12-04T03:47:18.464Z,1.48
2022-12-04T03:50:47.400Z,1.50
2022-12-04T03:54:15.785Z,1.48
2022-12-04T03:57:42.798Z,1.50
2022-12-04T04:01:08.784Z,1.49
2022-12-04T04:04:39.878Z,1.51
2022-12-04T04:08:17.934Z,1.54
2022-12-04T04:11:46.788Z,1.52
2022-12-04T04:15:29.874Z,1.54
2022-12-04T04:19:11.170Z,1.54
2022-12-04T04:22:55.756Z,1.57
2022-12-04T04:26:19.495Z,1.58
2022-12-04T04:29:48.061Z,1.57
2022-12-04T04:33:17.730Z,1.55
2022-12-04T04:36:46.649Z,1.58
2022-12-04T04:40:15.082Z,1.58
2022-12-04T04:43:41.175Z,1.54
2022-12-04T04:47:08.524Z,1.51
2022-12-04T04:50:31.110Z,1.53
2022-12-04T04:53:56.751Z,1.55
2022-12-04T04:57:27.615Z,1.54
2022-12-04T05:00:57.834Z,1.54
2022-12-04T05:04:20.954Z,1.56
2022-12-04T05:07:42.545Z,1.59
2022-12-04T05:11:05.227Z,1.61
2022-12-04T05:14:27.361Z,1.63
2022-12-04T05:17:48.927Z,1.66
2022-12-04T05:21:17.074Z,1.65
2022-12-04T05:24:38.790Z,1.61
2022-12-04T05:28:00.502Z,1.65
2022-12-04T05:31:22.051Z,1.65
2022-12-04T05:34:44.007Z,1.67
2022-12-04T05:38:07.268Z,1.68
2022-12-04T05:41:29.286Z,1.70
2022-12-04T05:44:51.221Z,1.71
2022-12-04T05:48:12.865Z,1.71
2022-12-04T05:51:34.661Z,1.69
2022-12-04T05:54:57.852Z,1.66
2022-12-04T05:58:19.591Z,1.69
2022-12-04T06:01:41.512Z,1.69
2022-12-04T06:05:03.395Z,1.70
2022-12-04T06:08:24.972Z,1.71
2022-12-04T06:11:48.112Z,1.72
2022-12-04T06:15:10.311Z,1.73
2022-12-04T06:18:31.959Z,1.75
2022-12-04T06:21:54.493Z,1.76
2022-12-04T06:25:16.087Z,1.78
2022-12-04T06:28:39.721Z,1.78
2022-12-04T06:32:01.916Z,1.79
2022-12-04T06:35:23.797Z,1.80
2022-12-04T06:38:46.718Z,1.81
2022-12-04T06:42:08.313Z,1.81
2022-12-04T06:45:31.429Z,1.81
2022-12-04T06:48:54.983Z,1.80
2022-12-04T06:52:16.639Z,1.80
2022-12-04T06:55:38.363Z,1.80
2022-12-04T06:59:02.431Z,1.78
2022-12-04T07:02:25.453Z,1.78
2022-12-04T07:05:47.346Z,1.79
2022-12-04T07:09:11.585Z,1.82
2022-12-04T07:12:33.165Z,1.81
2022-12-04T07:15:54.956Z,1.83
2022-12-04T07:19:18.136Z,1.86
2022-12-04T07:22:39.841Z,1.85
2022-12-04T07:26:06.444Z,1.85
2022-12-04T07:29:28.272Z,1.87
2022-12-04T07:32:50.043Z,1.88
2022-12-04T07:36:15.127Z,1.90
2022-12-04T07:39:37.025Z,1.90
2022-12-04T07:42:58.994Z,1.92
2022-12-04T07:46:23.671Z,1.89
2022-12-04T07:49:45.201Z,1.88
2022-12-04T07:53:08.432Z,1.88
2022-12-04T07:56:29.916Z,1.85
2022-12-04T07:59:51.819Z,1.88
2022-12-04T08:03:13.674Z,1.88
2022-12-04T08:06:36.181Z,1.93
2022-12-04T08:09:59.496Z,1.95
2022-12-04T08:13:21.330Z,1.97
2022-12-04T08:16:48.260Z,1.99
2022-12-04T08:20:13.514Z,2.00
2022-12-04T08:23:35.925Z,1.99
2022-12-04T08:26:58.881Z,2.00
2022-12-04T08:30:20.913Z,1.99
2022-12-04T08:33:44.287Z,2.00
2022-12-04T08:37:05.832Z,2.04
2022-12-04T08:40:27.902Z,2.05
2022-12-04T08:43:51.678Z,2.00
2022-12-04T08:47:13.698Z,2.02
2022-12-04T08:50:35.531Z,2.06
2022-12-04T08:53:58.886Z,2.06
2022-12-04T08:57:20.651Z,2.14
2022-12-04T09:00:44.194Z,2.16
2022-12-04T09:04:06.393Z,2.15
2022-12-04T09:07:28.224Z,2.15
2022-12-04T09:10:50.183Z,2.16
2022-12-04T09:14:11.961Z,2.20
2022-12-04T09:17:36.167Z,2.20
2022-12-04T09:20:58.417Z,2.22
2022-12-04T09:24:19.971Z,2.22
2022-12-04T09:27:43.280Z,2.22
2022-12-04T09:31:06.818Z,2.26
2022-12-04T09:34:29.846Z,2.31
2022-12-04T09:37:51.766Z,2.31
2022-12-04T09:41:26.490Z,2.37
2022-12-04T09:44:55.503Z,2.38
2022-12-04T09:48:19.459Z,2.43
2022-12-04T09:51:43.715Z,2.48
2022-12-04T09:55:12.919Z,2.50
2022-12-04T09:58:49.120Z,2.52
2022-12-04T10:02:29.252Z,2.53
2022-12-04T10:06:07.008Z,2.56
2022-12-04T10:09:39.257Z,2.58
2022-12-04T10:13:10.928Z,2.55
2022-12-04T10:16:46.100Z,2.57
2022-12-04T10:20:28.080Z,2.59
2022-12-04T10:23:59.487Z,2.57
2022-12-04T10:27:24.733Z,2.59
2022-12-04T10:30:48.645Z,2.60
2022-12-04T10:34:25.495Z,2.58
2022-12-04T10:37:49.381Z,2.57
2022-12-04T10:41:18.116Z,2.61
2022-12-04T10:44:41.290Z,2.62
2022-12-04T10:48:03.696Z,2.65
2022-12-04T10:51:25.343Z,2.64
2022-12-04T10:54:51.441Z,2.64
2022-12-04T10:58:17.603Z,2.66
2022-12-04T11:01:40.816Z,2.70
2022-12-04T11:05:04.783Z,2.72
2022-12-04T11:08:32.433Z,2.69
2022-12-04T11:11:54.410Z,2.70
2022-12-04T11:15:17.114Z,2.68
2022-12-04T11:18:50.791Z,2.68
2022-12-04T11:22:15.649Z,2.72
2022-12-04T11:25:45.936Z,2.73
2022-12-04T11:29:08.883Z,2.75
2022-12-04T11:32:34.230Z,2.74
2022-12-04T11:36:03.091Z,2.78
2022-12-04T11:39:31.174Z,2.75
2022-12-04T11:43:02.894Z,2.77
2022-12-04T11:46:26.476Z,2.79
2022-12-04T11:50:01.506Z,2.80
2022-12-04T11:53:31.282Z,2.83
2022-12-04T11:57:02.473Z,2.84
2022-12-04T12:00:26.394Z,2.85
2022-12-04T12:04:04.477Z,2.84
2022-12-04T12:07:37.768Z,2.84
2022-12-04T12:11:12.199Z,2.86
2022-12-04T12:14:43.343Z,2.86
2022-12-04T12:18:50.356Z,2.86
2022-12-04T12:22:26.175Z,2.89
2022-12-04T12:25:56.591Z,2.87
2022-12-04T12:29:35.069Z,2.89
2022-12-04T12:33:09.356Z,2.91
2022-12-04T12:36:41.351Z,2.91
2022-12-04T12:40:13.659Z,2.91
2022-12-04T12:43:54.668Z,2.91
2022-12-04T12:47:31.371Z,2.91
2022-12-04T12:51:14.961Z,2.89
2022-12-04T12:54:45.051Z,2.94
2022-12-04T12:58:14.388Z,2.98
2022-12-04T13:01:46.930Z,2.98
2022-12-04T13:05:12.335Z,2.99
2022-12-04T13:08:39.213Z,2.98
2022-12-04T13:12:05.926Z,2.92
2022-12-04T13:15:38.957Z,2.93
2022-12-04T13:19:09.666Z,2.96
2022-12-04T13:22:41.447Z,2.95
2022-12-04T13:26:11.475Z,2.95
2022-12-04T13:29:45.841Z,2.96
2022-12-04T13:33:39.929Z,2.98
2022-12-04T13:37:19.183Z,3.00
2022-12-04T13:40:44.018Z,2.98
2022-12-04T13:44:14.602Z,3.00
2022-12-04T13:47:37.703Z,2.97
2022-12-04T13:51:05.622Z,2.98
2022-12-04T13:54:32.092Z,2.98
2022-12-04T13:57:55.016Z,3.00
2022-12-04T14:01:30.895Z,3.02
2022-12-04T14:05:00.286Z,3.02
2022-12-04T14:08:25.878Z,2.99
2022-12-04T14:11:52.853Z,3.01
2022-12-04T14:15:23.034Z,3.04
2022-12-04T14:18:48.650Z,3.04
2022-12-04T14:22:27.279Z,3.06
2022-12-04T14:25:51.223Z,3.06
2022-12-04T14:29:35.411Z,3.02
2022-12-04T14:33:06.869Z,3.03
2022-12-04T14:36:31.839Z,3.06
2022-12-04T14:39:54.576Z,3.03
2022-12-04T14:43:20.311Z,3.09
2022-12-04T14:46:48.881Z,3.10
2022-12-04T14:50:26.714Z,3.09
2022-12-04T14:53:57.288Z,3.09
2022-12-04T14:57:38.579Z,3.10
2022-12-04T15:01:02.438Z,3.11
2022-12-04T15:04:29.765Z,3.10
2022-12-04T15:07:54.607Z,3.07
2022-12-04T15:11:36.717Z,3.04
2022-12-04T15:15:01.089Z,2.98
2022-12-04T15:18:23.077Z,3.00
2022-12-04T15:21:46.489Z,3.00
2022-12-04T15:25:15.114Z,2.99
2022-12-04T15:28:44.447Z,2.99
2022-12-04T15:32:12.043Z,3.01
2022-12-04T15:35:35.493Z,3.04
2022-12-04T15:38:59.580Z,3.07
2022-12-04T15:42:27.562Z,3.06
2022-12-04T15:45:49.414Z,3.07
2022-12-04T15:49:19.123Z,3.05
2022-12-04T15:52:50.566Z,3.03
2022-12-04T15:56:20.032Z,2.99
2022-12-04T15:59:41.756Z,2.99
2022-12-04T16:03:07.302Z,3.01
2022-12-04T16:06:30.936Z,3.00
2022-12-04T16:10:01.076Z,2.99
2022-12-04T16:13:31.836Z,2.98
2022-12-04T16:16:55.326Z,3.04
2022-12-04T16:20:17.433Z,3.08
2022-12-04T16:23:39.095Z,3.09
2022-12-04T16:27:02.026Z,3.06
2022-12-04T16:30:25.095Z,3.04
2022-12-04T16:33:46.603Z,3.06
2022-12-04T16:37:13.302Z,3.09
2022-12-04T16:40:34.939Z,3.08
2022-12-04T16:43:59.216Z,3.09
2022-12-04T16:47:22.134Z,3.11
2022-12-04T16:50:46.403Z,3.11
2022-12-04T16:54:07.890Z,3.11
2022-12-04T16:57:29.710Z,3.10
2022-12-04T17:00:54.204Z,3.12
2022-12-04T17:04:17.492Z,3.15
2022-12-04T17:07:39.226Z,3.17
2022-12-04T17:11:01.001Z,3.19
2022-12-04T17:14:22.835Z,3.18
2022-12-04T17:17:44.730Z,3.16
2022-12-04T17:21:09.930Z,3.18
2022-12-04T17:24:31.405Z,3.15
2022-12-04T17:27:53.262Z,3.15
2022-12-04T17:31:17.756Z,3.11
2022-12-04T17:34:39.319Z,3.13
2022-12-04T17:38:06.169Z,3.15
2022-12-04T17:41:29.118Z,3.15
2022-12-04T17:44:50.913Z,3.16
2022-12-04T17:48:12.598Z,3.17
2022-12-04T17:51:35.814Z,3.15
2022-12-04T17:54:59.298Z,3.15
2022-12-04T17:58:21.237Z,3.17
2022-12-04T18:01:43.283Z,3.20
2022-12-04T18:05:05.135Z,3.21
2022-12-04T18:08:28.963Z,3.17
2022-12-04T18:11:52.287Z,3.21
2022-12-04T18:15:14.223Z,3.25
2022-12-04T18:18:36.387Z,3.23
2022-12-04T18:21:58.554Z,3.26
2022-12-04T18:25:20.494Z,3.28
2022-12-04T18:28:44.152Z,3.26
2022-12-04T18:32:06.517Z,3.30
2022-12-04T18:35:28.566Z,3.29
2022-12-04T18:38:55.630Z,3.30
2022-12-04T18:42:17.442Z,3.31
2022-12-04T18:45:43.753Z,3.32
2022-12-04T18:49:05.425Z,3.33
2022-12-04T18:52:29.074Z,3.33
2022-12-04T18:55:50.894Z,3.35
2022-12-04T18:59:14.155Z,3.32
2022-12-04T19:02:37.248Z,3.31
2022-12-04T19:05:59.238Z,3.31
2022-12-04T19:09:40.884Z,3.30
2022-12-04T19:13:06.333Z,3.32
2022-12-04T19:16:28.910Z,3.34
2022-12-04T19:19:52.193Z,3.35
2022-12-04T19:23:13.970Z,3.35
2022-12-04T19:26:35.761Z,3.36
2022-12-04T19:29:57.812Z,3.39
2022-12-04T19:33:19.939Z,3.43
2022-12-04T19:36:45.360Z,3.40
2022-12-04T19:40:08.335Z,3.42
2022-12-04T19:43:30.231Z,3.44
2022-12-04T19:46:52.136Z,3.47
2022-12-04T19:50:14.021Z,3.50
2022-12-04T19:53:40.917Z,3.50
2022-12-04T19:57:02.823Z,3.51
2022-12-04T20:00:24.601Z,3.49
2022-12-04T20:03:46.898Z,3.49
2022-12-04T20:07:08.978Z,3.50
2022-12-04T20:10:33.165Z,3.52
2022-12-04T20:13:55.769Z,3.55
2022-12-04T20:17:18.038Z,3.52
2022-12-04T20:20:41.169Z,3.49
2022-12-04T20:24:07.833Z,3.51
2022-12-04T20:27:30.966Z,3.51
2022-12-04T20:30:52.914Z,3.48
2022-12-04T20:34:17.373Z,3.50
2022-12-04T20:37:39.161Z,3.52
2022-12-04T20:41:03.758Z,3.48
2022-12-04T20:44:27.011Z,3.49
2022-12-04T20:47:48.752Z,3.47
2022-12-04T20:51:10.579Z,3.50
2022-12-04T20:54:37.873Z,3.52
2022-12-04T20:58:02.427Z,3.56
2022-12-04T21:01:26.618Z,3.60
2022-12-04T21:04:48.483Z,3.58
2022-12-04T21:08:10.532Z,3.59
2022-12-04T21:11:35.451Z,3.59
2022-12-04T21:15:15.127Z,3.61
2022-12-04T21:18:38.921Z,3.56
2022-12-04T21:22:00.599Z,3.59
2022-12-04T21:25:22.610Z,3.60
2022-12-04T21:28:44.633Z,3.61
2022-12-04T21:32:07.969Z,3.58
2022-12-04T21:35:30.928Z,3.60
2022-12-04T21:38:53.102Z,3.59
2022-12-04T21:42:32.874Z,3.59
2022-12-04T21:46:02.029Z,3.61
2022-12-04T21:49:27.859Z,3.60
2022-12-04T21:52:51.142Z,3.61
2022-12-04T21:56:13.483Z,3.62
2022-12-04T21:59:35.146Z,3.65
2022-12-04T22:02:56.857Z,3.65
2022-12-04T22:06:18.899Z,3.66
2022-12-04T22:09:41.987Z,3.66
2022-12-04T22:13:04.783Z,3.65
2022-12-04T22:16:30.215Z,3.67
2022-12-04T22:19:51.901Z,3.69
2022-12-04T22:23:13.916Z,3.70
2022-12-04T22:26:38.178Z,3.71
2022-12-04T22:29:59.510Z,3.70
2022-12-04T22:33:21.314Z,3.66
2022-12-04T22:36:43.334Z,3.67
2022-12-04T22:40:05.617Z,3.69
2022-12-04T22:43:29.586Z,3.69
2022-12-04T22:46:51.522Z,3.70
2022-12-04T22:50:13.408Z,3.70
2022-12-04T22:53:38.150Z,3.72
2022-12-04T22:56:59.794Z,3.70
2022-12-04T23:00:23.076Z,3.70
2022-12-04T23:03:45.350Z,3.71
2022-12-04T23:07:07.327Z,3.71
2022-12-04T23:10:29.454Z,3.75
2022-12-04T23:13:52.546Z,3.75
2022-12-04T23:17:15.743Z,3.76
2022-12-04T23:20:37.832Z,3.77
2022-12-04T23:23:59.670Z,3.78
2022-12-04T23:27:21.347Z,3.79
2022-12-04T23:30:46.799Z,3.77
2022-12-04T23:34:09.847Z,3.79
2022-12-04T23:37:31.814Z,3.81
2022-12-04T23:41:01.725Z,3.82
2022-12-04T23:44:23.640Z,3.81
2022-12-04T23:47:45.570Z,3.81
2022-12-04T23:51:09.562Z,3.83
2022-12-04T23:54:35.004Z,3.83
2022-12-04T23:57:56.823Z,3.82
